الصفحة الرئيسية
METAR-TAF:

METAR-TAF

مطار :

Cerklje ob Krki, سلوفينيا

دائرة عرض: 45-53-59N, خط طول: 15-30-55E, ارتفاع: 157 متر

مراقبة الطقس الحالي

تاريخ ووقت الإصدار 37 دقيقة قبل الساعة 08:30UTC
ريح 1 عقدة من الجنوب/الجنوب الغربي
درجة الحرارة 21°درجة مئوية
الرطوبة 64%
ضغط 1019 hPa
الرؤية 10 كم أو أكثر
الغيوم لا تقل 1500 م ولا وجود لمزنة ركامية السحاب الأسود

METAR: LJCE 040830Z 21001KT CAVOK 21/14 Q1019 RMK BLU

زمن: 11:07 (09:07 UTC)

توقعات

تاريخ ووقت الإصدار 1ساعة و 7 دقيقة قبل الساعة 08:00UTC
التوقعات صالحة من04 الساعة 09 UTC إلى 04 الساعة 18 UTC
ريح 5 عقدة من الشرق
الرؤية 10 كم أو أكثر
الغيوم لا تقل 1500 م ولا وجود لمزنة ركامية السحاب الأسود

TAF: LJCE 040800Z 0409/0418 09005KT CAVOK

أرصاد الطقس والتوقعات من أكثر من 4000 مطار (تقارير الطقس للمطار METAR والتنبؤ بالطقس بالمطارTAF).

المحطات المتاحة هي النقط الصفراء والحمراء على الخريطة.

حرك المؤشر فوق النقطة لمعرفة اسم المحطة.

ثم انقر لمعرفة أرصاد وتوقعات الطقس.

لتغيير الخارطة: اضغط على الأزرار الخضراء مع رمز الصليب الأسود للتكبير. على الزر الأخضر مع شرطة للتصغير، أو على الأسهم الخضراء للخرائط المجاورة.


METAR-TAF: